Time;durP1;ratioP1;P1;durP2;ratioP2;P2;SDS_P1;SDS_P2;PMS_P1;PMS_P2;Temp;Humidity;BMP_temperature;BMP_pressure;BME280_temperature;BME280_humidity;BME280_pressure;Samples;Min_cycle;Max_cycle;Signal;HPM_P1;HPM_P2
2023/08/25 07:19:20;;;;;;;4.40;2.20;;;20.70;99.90;;;;;;3137412;23;20248;-75
2023/08/25 07:21:47;;;;;;;3.60;2.20;;;20.70;99.90;;;;;;4875674;29;20243;-73
2023/08/25 07:24:14;;;;;;;4.82;2.78;;;20.60;99.90;;;;;;4868718;29;20284;-74
2023/08/25 07:26:41;;;;;;;5.95;2.67;;;20.40;99.90;;;;;;4852489;29;20315;-76
2023/08/25 07:29:08;;;;;;;4.15;2.45;;;20.50;99.90;;;;;;4843916;29;20699;-76
2023/08/25 07:31:35;;;;;;;3.88;2.90;;;20.50;99.90;;;;;;4844005;29;20281;-75
2023/08/25 07:34:02;;;;;;;5.15;2.08;;;20.50;99.90;;;;;;4843953;29;20258;-77
2023/08/25 07:36:31;;;;;;;3.85;2.60;;;20.60;99.90;;;;;;4848886;29;20294;-74
2023/08/25 07:38:58;;;;;;;4.82;3.13;;;20.50;99.90;;;;;;4843755;29;20236;-72
2023/08/25 07:41:24;;;;;;;4.55;2.80;;;20.50;99.90;;;;;;4843786;29;20255;-76
2023/08/25 07:43:51;;;;;;;5.13;2.90;;;20.40;99.90;;;;;;4843455;29;20737;-74
2023/08/25 07:46:18;;;;;;;6.22;3.25;;;20.40;99.90;;;;;;4843627;29;20287;-73
2023/08/25 07:48:46;;;;;;;5.80;3.28;;;20.40;99.90;;;;;;4843918;29;20248;-71
2023/08/25 07:51:13;;;;;;;4.53;3.40;;;20.40;99.90;;;;;;4843886;29;20220;-72
2023/08/25 07:53:41;;;;;;;5.13;3.05;;;20.40;99.90;;;;;;4843953;29;20251;-72
2023/08/25 07:56:08;;;;;;;4.88;3.53;;;20.40;99.90;;;;;;4843260;29;20267;-73
2023/08/25 07:58:35;;;;;;;5.65;3.53;;;20.50;99.90;;;;;;4843542;29;20252;-71
2023/08/25 08:01:03;;;;;;;5.72;3.50;;;20.60;99.90;;;;;;4843815;29;20215;-77
2023/08/25 08:03:30;;;;;;;6.45;3.30;;;20.70;99.90;;;;;;4843824;29;20217;-72
2023/08/25 08:05:58;;;;;;;6.05;3.47;;;20.70;99.90;;;;;;4843309;29;20232;-79
2023/08/25 08:08:25;;;;;;;6.90;4.00;;;20.70;99.90;;;;;;4843272;29;20217;-75
2023/08/25 08:10:53;;;;;;;5.07;3.80;;;20.60;99.90;;;;;;4843207;29;20247;-77
2023/08/25 08:13:20;;;;;;;6.32;4.03;;;20.50;99.90;;;;;;4846127;29;20327;-73
2023/08/25 08:15:47;;;;;;;5.80;4.90;;;20.60;99.90;;;;;;4851173;29;20228;-73
2023/08/25 08:18:14;;;;;;;6.30;4.28;;;20.60;99.90;;;;;;4844834;29;20612;-73
2023/08/25 08:20:42;;;;;;;7.93;3.95;;;20.60;99.90;;;;;;4843045;29;20269;-77
2023/08/25 08:23:09;;;;;;;5.55;3.90;;;20.70;99.90;;;;;;4843226;29;20240;-78
2023/08/25 08:25:36;;;;;;;7.72;3.88;;;20.60;99.90;;;;;;4843054;29;20256;-84
2023/08/25 08:28:06;;;;;;;7.25;3.88;;;20.50;99.90;;;;;;4842917;29;20220;-72
2023/08/25 08:30:33;;;;;;;10.18;4.88;;;20.60;99.90;;;;;;4843079;29;20759;-73
2023/08/25 08:33:00;;;;;;;6.10;3.78;;;20.70;99.90;;;;;;4842747;29;20296;-76
2023/08/25 08:35:27;;;;;;;6.90;3.95;;;20.70;99.90;;;;;;4842566;29;20299;-77
2023/08/25 08:37:54;;;;;;;6.15;3.80;;;20.80;99.90;;;;;;4842781;29;20300;-72
2023/08/25 08:40:21;;;;;;;6.25;3.40;;;20.80;99.90;;;;;;4842577;29;20244;-71
2023/08/25 08:42:52;;;;;;;4.90;3.35;;;20.90;99.90;;;;;;4842334;29;20205;-70
2023/08/25 08:45:25;;;;;;;7.28;4.20;;;20.90;99.90;;;;;;4842153;29;20708;-75
2023/08/25 08:47:52;;;;;;;7.18;3.95;;;21.00;99.90;;;;;;4842483;29;20213;-71
2023/08/25 08:50:21;;;;;;;7.93;3.40;;;21.00;99.90;;;;;;4840829;29;20294;-74
2023/08/25 08:52:49;;;;;;;5.80;3.90;;;21.10;99.90;;;;;;4841422;29;20205;-72
2023/08/25 08:55:16;;;;;;;7.07;4.00;;;21.00;99.90;;;;;;4840675;29;20307;-74
2023/08/25 08:57:43;;;;;;;6.80;4.07;;;21.00;99.90;;;;;;4840624;29;20240;-71
2023/08/25 09:00:12;;;;;;;9.05;4.65;;;21.10;99.90;;;;;;4850219;29;20291;-71
2023/08/25 09:02:43;;;;;;;6.32;4.25;;;21.10;99.90;;;;;;4840968;29;20219;-71
2023/08/25 09:05:14;;;;;;;5.60;3.92;;;21.20;99.90;;;;;;4840767;29;20249;-70
2023/08/25 09:07:42;;;;;;;7.93;4.05;;;21.20;99.90;;;;;;4840584;29;20233;-75
2023/08/25 09:10:11;;;;;;;6.28;4.15;;;21.40;99.90;;;;;;4840568;29;20216;-77
2023/08/25 09:12:38;;;;;;;7.88;4.00;;;21.50;99.90;;;;;;4841829;29;20671;-75
2023/08/25 09:15:08;;;;;;;5.80;3.85;;;21.70;99.90;;;;;;4840926;29;20619;-72
2023/08/25 09:17:37;;;;;;;6.30;3.40;;;21.70;99.90;;;;;;4840743;29;20368;-70
2023/08/25 09:20:08;;;;;;;5.53;3.97;;;21.80;99.90;;;;;;4849098;29;20267;-77
2023/08/25 09:22:35;;;;;;;6.40;3.95;;;21.70;99.90;;;;;;4841224;29;20308;-72
2023/08/25 09:25:02;;;;;;;7.30;5.07;;;21.80;99.90;;;;;;4840531;29;20698;-72
2023/08/25 09:27:29;;;;;;;10.00;6.28;;;21.80;99.90;;;;;;4840549;29;20232;-73
2023/08/25 09:30:03;;;;;;;10.23;6.38;;;21.70;99.90;;;;;;4848519;29;20219;-71
2023/08/25 09:32:30;;;;;;;10.70;6.40;;;21.70;99.90;;;;;;4841258;29;20216;-77
2023/08/25 09:35:12;;;;;;;12.57;6.85;;;21.70;99.90;;;;;;4840899;29;20254;-73
2023/08/25 09:37:41;;;;;;;12.25;6.70;;;21.60;99.90;;;;;;4840449;29;20237;-74
2023/08/25 09:40:11;;;;;;;13.60;7.25;;;21.60;99.90;;;;;;4848142;29;20219;-75
2023/08/25 09:42:38;;;;;;;12.77;7.30;;;21.50;99.90;;;;;;4840398;29;20296;-72
2023/08/25 09:45:06;;;;;;;10.32;6.53;;;21.50;99.90;;;;;;4840916;29;20649;-75
2023/08/25 09:47:33;;;;;;;12.40;7.72;;;21.40;99.90;;;;;;4840517;29;20651;-69
2023/08/25 09:50:00;;;;;;;16.45;7.75;;;21.50;99.90;;;;;;4840545;29;20617;-70
2023/08/25 09:52:33;;;;;;;16.27;8.13;;;21.50;99.90;;;;;;4840445;29;20299;-71
2023/08/25 09:55:00;;;;;;;12.02;7.43;;;21.60;99.90;;;;;;4842131;29;20327;-78
2023/08/25 09:57:28;;;;;;;13.82;8.35;;;21.50;99.90;;;;;;4844253;29;20228;-69
2023/08/25 09:59:56;;;;;;;14.07;7.85;;;21.50;99.90;;;;;;4844999;29;20291;-70
2023/08/25 10:02:23;;;;;;;13.73;7.43;;;21.50;99.90;;;;;;4844118;29;20324;-70
2023/08/25 10:04:50;;;;;;;12.82;8.10;;;21.60;99.90;;;;;;4844535;29;20236;-69
2023/08/25 10:07:17;;;;;;;12.40;7.35;;;21.60;99.90;;;;;;4844215;29;20319;-69
2023/08/25 10:09:45;;;;;;;11.70;7.10;;;21.60;99.90;;;;;;4844218;29;20255;-70
2023/08/25 10:12:13;;;;;;;14.50;7.60;;;21.70;99.90;;;;;;4848572;29;20246;-70
2023/08/25 10:14:45;;;;;;;12.18;7.70;;;21.50;99.90;;;;;;4844085;29;20316;-75
2023/08/25 10:17:14;;;;;;;14.07;7.53;;;21.70;99.90;;;;;;4844112;29;20311;-72
2023/08/25 10:19:43;;;;;;;12.82;7.75;;;21.80;99.90;;;;;;4844096;29;20588;-73
2023/08/25 10:22:13;;;;;;;10.93;7.28;;;21.80;99.90;;;;;;4843970;29;20307;-70
2023/08/25 10:24:40;;;;;;;12.88;7.88;;;21.80;99.90;;;;;;4844412;29;20240;-69
2023/08/25 10:27:10;;;;;;;15.00;8.65;;;21.90;99.90;;;;;;4843307;29;20738;-70
2023/08/25 10:29:37;;;;;;;12.02;7.97;;;21.90;99.90;;;;;;4843663;29;20220;-71
2023/08/25 10:32:05;;;;;;;12.52;7.43;;;21.90;99.90;;;;;;4843554;29;20251;-70
2023/08/25 10:34:33;;;;;;;13.95;7.75;;;21.80;99.90;;;;;;4843743;29;20240;-73
2023/08/25 10:37:05;;;;;;;14.57;8.38;;;21.80;99.90;;;;;;4843932;29;20264;-73
2023/08/25 10:39:48;;;;;;;11.50;7.47;;;21.80;99.90;;;;;;4843641;29;20251;-74
2023/08/25 10:42:19;;;;;;;12.27;8.00;;;21.50;99.90;;;;;;4847270;29;20244;-73
2023/08/25 10:44:47;;;;;;;13.82;7.88;;;21.10;99.90;;;;;;4843569;29;20656;-70
2023/08/25 10:47:19;;;;;;;13.85;7.50;;;21.10;99.90;;;;;;4843132;29;20236;-78
2023/08/25 10:49:46;;;;;;;14.45;7.63;;;21.20;99.90;;;;;;4842952;29;20665;-71
2023/08/25 10:52:14;;;;;;;14.43;8.13;;;21.20;99.90;;;;;;4842949;29;20209;-78
2023/08/25 10:54:42;;;;;;;15.13;7.95;;;21.30;99.90;;;;;;4842979;29;20363;-83
2023/08/25 10:57:44;;;;;;;17.85;8.45;;;21.40;99.90;;;;;;4843670;29;20232;-71
2023/08/25 11:00:28;;;;;;;17.77;9.02;;;21.40;99.90;;;;;;4826709;29;20219;-70
2023/08/25 11:02:55;;;;;;;18.00;8.15;;;21.40;99.90;;;;;;4844573;29;20217;-70
2023/08/25 11:05:39;;;;;;;15.18;8.25;;;21.60;99.90;;;;;;4844270;29;20300;-75
2023/08/25 11:08:22;;;;;;;19.20;9.43;;;21.80;99.90;;;;;;4844075;29;20291;-73
2023/08/25 11:11:08;;;;;;;18.98;9.57;;;22.10;99.90;;;;;;4844765;29;20248;-72
2023/08/25 11:13:38;;;;;;;19.50;10.88;;;22.40;99.90;;;;;;4844678;29;20736;-72
2023/08/25 11:16:07;;;;;;;20.30;10.75;;;22.70;99.90;;;;;;4844362;29;20233;-72
2023/08/25 11:18:34;;;;;;;21.33;10.65;;;22.90;99.90;;;;;;4844123;29;20759;-73
2023/08/25 11:21:02;;;;;;;17.08;10.30;;;22.90;99.90;;;;;;4844338;29;20299;-73
2023/08/25 11:23:36;;;;;;;22.90;11.07;;;23.10;99.90;;;;;;4844621;29;20269;-72
2023/08/25 11:26:03;;;;;;;19.17;10.63;;;23.20;99.90;;;;;;4844203;29;20708;-72
2023/08/25 11:28:30;;;;;;;18.90;10.30;;;23.30;99.90;;;;;;4843915;29;20213;-72
2023/08/25 11:30:59;;;;;;;18.02;9.57;;;23.20;99.90;;;;;;4844222;29;20300;-72
2023/08/25 11:33:26;;;;;;;16.13;9.02;;;23.20;99.90;;;;;;4844397;29;20299;-72
2023/08/25 11:35:53;;;;;;;16.67;9.05;;;23.30;99.90;;;;;;4843710;29;20240;-72
2023/08/25 11:38:21;;;;;;;14.13;8.63;;;23.20;99.90;;;;;;4843906;29;20665;-72
2023/08/25 11:40:47;;;;;;;12.70;7.47;;;23.20;99.90;;;;;;4844157;29;20316;-72
2023/08/25 11:43:14;;;;;;;12.75;7.70;;;23.00;99.90;;;;;;4844159;29;20629;-73
2023/08/25 11:45:41;;;;;;;10.07;6.13;;;23.10;99.90;;;;;;4843705;29;20299;-72
2023/08/25 11:48:10;;;;;;;12.30;6.25;;;23.20;99.90;;;;;;4843790;29;20222;-72
2023/08/25 11:50:36;;;;;;;13.88;7.07;;;23.30;99.90;;;;;;4843789;29;20652;-72
2023/08/25 11:53:04;;;;;;;8.95;5.68;;;23.30;99.90;;;;;;4843948;29;20267;-72
2023/08/25 11:55:34;;;;;;;12.13;6.22;;;23.40;99.90;;;;;;4843558;29;20248;-72
2023/08/25 11:58:06;;;;;;;10.95;5.60;;;23.40;99.90;;;;;;4843808;29;20212;-73
2023/08/25 12:00:37;;;;;;;10.13;5.88;;;23.50;99.90;;;;;;4843903;29;20221;-73
2023/08/25 12:03:04;;;;;;;11.00;6.45;;;23.70;99.90;;;;;;4844574;29;20212;-73
2023/08/25 12:05:35;;;;;;;10.27;6.00;;;23.60;99.90;;;;;;4860971;29;20304;-76
2023/08/25 12:08:02;;;;;;;10.43;6.18;;;23.70;99.90;;;;;;4855533;29;20568;-75
2023/08/25 12:10:34;;;;;;;11.48;6.15;;;23.70;99.90;;;;;;4846763;29;20219;-76
2023/08/25 12:13:02;;;;;;;9.02;5.18;;;23.80;99.90;;;;;;4861306;29;20659;-73
2023/08/25 12:15:39;;;;;;;9.70;5.25;;;24.00;99.90;;;;;;4861687;29;20269;-72
2023/08/25 12:18:06;;;;;;;9.57;5.45;;;24.20;99.90;;;;;;4859967;29;20214;-76
2023/08/25 12:20:35;;;;;;;9.02;5.15;;;24.40;99.90;;;;;;4861389;29;20264;-80
2023/08/25 12:23:02;;;;;;;9.32;5.10;;;24.60;99.90;;;;;;4861219;29;20294;-75
2023/08/25 12:25:31;;;;;;;8.73;5.07;;;24.70;99.90;;;;;;4861525;29;20219;-74
2023/08/25 12:27:59;;;;;;;7.20;3.85;;;24.80;99.90;;;;;;4853222;29;20589;-78
2023/08/25 12:30:28;;;;;;;7.75;4.25;;;24.90;99.90;;;;;;4861448;29;20298;-77
2023/08/25 12:32:55;;;;;;;8.35;3.90;;;25.00;99.90;;;;;;4860977;29;20219;-78
2023/08/25 12:35:23;;;;;;;6.95;4.13;;;25.10;99.90;;;;;;4860957;29;20239;-76
2023/08/25 12:37:52;;;;;;;8.02;4.45;;;25.20;99.90;;;;;;4853397;29;20244;-74
2023/08/25 12:40:20;;;;;;;6.97;4.30;;;25.30;99.90;;;;;;4861010;29;20514;-76
2023/08/25 12:42:50;;;;;;;6.45;4.20;;;25.10;99.90;;;;;;4860825;29;20212;-73
2023/08/25 12:45:17;;;;;;;7.07;4.28;;;25.20;99.90;;;;;;4861149;29;20220;-75
2023/08/25 12:47:44;;;;;;;8.73;4.18;;;25.20;99.90;;;;;;4854138;29;20264;-79
2023/08/25 12:50:11;;;;;;;9.48;5.28;;;24.90;99.90;;;;;;4860498;29;20208;-76
2023/08/25 12:52:38;;;;;;;12.13;6.43;;;24.70;99.90;;;;;;4855433;29;20248;-73
2023/08/25 12:55:10;;;;;;;11.48;6.85;;;24.60;99.90;;;;;;4851371;29;20346;-72
2023/08/25 12:57:37;;;;;;;13.00;6.85;;;24.70;99.90;;;;;;4858948;29;20480;-74
2023/08/25 13:00:05;;;;;;;15.48;8.07;;;24.80;99.90;;;;;;4860445;29;20307;-77
2023/08/25 13:02:32;;;;;;;17.02;8.80;;;24.80;99.90;;;;;;4856448;29;20251;-75
2023/08/25 13:04:59;;;;;;;15.63;8.35;;;24.70;99.90;;;;;;4850104;29;20298;-77
2023/08/25 13:07:26;;;;;;;14.38;8.15;;;25.00;99.90;;;;;;4857625;29;20264;-74
2023/08/25 13:09:53;;;;;;;14.75;7.93;;;25.00;99.90;;;;;;4856793;29;20291;-72
2023/08/25 13:12:21;;;;;;;13.63;7.55;;;24.90;99.90;;;;;;4858024;29;20644;-73
2023/08/25 13:14:48;;;;;;;13.70;7.35;;;24.80;99.90;;;;;;4847709;29;20327;-70
2023/08/25 13:17:15;;;;;;;14.68;7.70;;;24.80;99.90;;;;;;4859265;29;20259;-72
2023/08/25 13:19:42;;;;;;;12.63;7.20;;;25.00;99.90;;;;;;4855902;29;20646;-72
2023/08/25 13:22:09;;;;;;;13.90;7.35;;;25.00;99.90;;;;;;4859549;29;20212;-75
2023/08/25 13:24:36;;;;;;;12.43;7.35;;;24.90;99.90;;;;;;4860147;29;20746;-71
2023/08/25 13:27:03;;;;;;;12.15;7.53;;;25.20;99.90;;;;;;4860438;29;20721;-72
2023/08/25 13:29:31;;;;;;;13.23;7.63;;;25.10;99.90;;;;;;4854334;29;20738;-71
2023/08/25 13:31:58;;;;;;;16.05;8.15;;;25.20;99.90;;;;;;4860453;29;20303;-71
2023/08/25 13:34:25;;;;;;;12.32;7.55;;;24.90;99.90;;;;;;4858691;29;20268;-76
2023/08/25 13:36:52;;;;;;;13.05;7.38;;;25.00;99.90;;;;;;4860248;29;20315;-72
2023/08/25 13:39:19;;;;;;;15.10;7.53;;;24.90;99.90;;;;;;4854240;29;20299;-75
2023/08/25 13:41:46;;;;;;;13.73;8.13;;;24.80;99.90;;;;;;4860579;29;20262;-73
2023/08/25 13:44:13;;;;;;;14.32;8.20;;;24.70;99.90;;;;;;4845827;29;20300;-75
2023/08/25 13:46:41;;;;;;;17.42;8.65;;;25.00;99.90;;;;;;4859915;29;20236;-72
2023/08/25 13:49:08;;;;;;;15.75;8.68;;;25.20;99.90;;;;;;4854119;29;20235;-75
2023/08/25 13:51:35;;;;;;;13.82;7.45;;;25.20;99.90;;;;;;4860301;29;20244;-72
2023/08/25 13:54:02;;;;;;;16.75;9.13;;;25.30;99.90;;;;;;4848122;29;20244;-73
2023/08/25 13:56:29;;;;;;;15.20;8.48;;;25.30;99.90;;;;;;4859554;29;20778;-73
2023/08/25 13:58:56;;;;;;;14.55;8.70;;;25.20;99.90;;;;;;4857571;29;20294;-73
2023/08/25 14:01:23;;;;;;;15.15;9.23;;;25.20;99.90;;;;;;4858969;29;20250;-72
2023/08/25 14:03:51;;;;;;;15.40;9.32;;;25.10;99.90;;;;;;4849002;29;20216;-71
2023/08/25 14:06:18;;;;;;;17.73;9.90;;;25.00;99.90;;;;;;4857653;29;20279;-76
2023/08/25 14:08:46;;;;;;;17.35;9.45;;;24.70;99.90;;;;;;4854013;29;20336;-75
2023/08/25 14:11:14;;;;;;;15.73;9.20;;;24.50;99.90;;;;;;4859828;29;20668;-74
2023/08/25 14:13:41;;;;;;;17.65;8.73;;;24.50;99.90;;;;;;4850781;29;20219;-74
2023/08/25 14:16:09;;;;;;;16.70;9.13;;;24.70;99.90;;;;;;4855668;29;20592;-73
2023/08/25 14:18:36;;;;;;;16.45;9.30;;;24.90;99.90;;;;;;4853710;29;20285;-75
2023/08/25 14:21:04;;;;;;;17.02;9.05;;;25.00;99.90;;;;;;4859646;29;20664;-71
2023/08/25 14:23:31;;;;;;;15.98;9.15;;;25.20;99.90;;;;;;4852425;29;20251;-74
2023/08/25 14:25:58;;;;;;;16.35;9.18;;;25.20;99.90;;;;;;4853887;29;20326;-70
2023/08/25 14:28:25;;;;;;;16.52;8.77;;;25.30;99.90;;;;;;4853672;29;20217;-73
2023/08/25 14:30:51;;;;;;;16.58;8.85;;;25.10;99.90;;;;;;4860074;29;20236;-72
2023/08/25 14:33:18;;;;;;;14.82;7.82;;;25.00;99.90;;;;;;4854308;29;20223;-73
2023/08/25 14:35:45;;;;;;;16.27;8.35;;;25.00;99.90;;;;;;4851889;29;20657;-72
2023/08/25 14:38:13;;;;;;;15.27;8.40;;;24.90;99.90;;;;;;4855327;29;20259;-72
2023/08/25 14:40:40;;;;;;;12.55;7.60;;;24.90;99.90;;;;;;4859703;29;20251;-73
2023/08/25 14:43:07;;;;;;;13.00;7.45;;;25.10;99.90;;;;;;4859410;29;20240;-72
2023/08/25 14:45:35;;;;;;;9.88;6.82;;;25.20;99.90;;;;;;4853123;29;20743;-72
2023/08/25 14:48:02;;;;;;;12.52;6.55;;;25.10;99.90;;;;;;4851982;29;20312;-72
2023/08/25 14:50:29;;;;;;;10.85;6.32;;;25.20;99.90;;;;;;4859951;29;20294;-72
2023/08/25 14:52:56;;;;;;;13.00;6.57;;;25.10;99.90;;;;;;4848528;29;20236;-72
2023/08/25 14:55:25;;;;;;;11.15;6.78;;;24.90;99.90;;;;;;4851646;29;20243;-74
2023/08/25 14:57:52;;;;;;;11.75;7.00;;;24.90;99.90;;;;;;4857471;29;20248;-73
2023/08/25 15:00:19;;;;;;;11.38;6.97;;;24.60;99.90;;;;;;4844922;29;20308;-73
2023/08/25 15:02:46;;;;;;;9.50;6.28;;;24.40;99.90;;;;;;4844853;29;20254;-73
2023/08/25 15:05:13;;;;;;;11.07;6.28;;;24.00;99.90;;;;;;4843317;29;20299;-72
2023/08/25 15:07:39;;;;;;;12.60;6.00;;;24.00;99.90;;;;;;4860381;29;20759;-73
2023/08/25 15:10:07;;;;;;;11.50;6.05;;;24.00;99.90;;;;;;4861701;29;20219;-73
2023/08/25 15:12:35;;;;;;;10.35;5.70;;;24.10;99.90;;;;;;4862014;29;20707;-74
2023/08/25 15:15:03;;;;;;;9.75;6.07;;;24.10;99.90;;;;;;4861830;29;20283;-73
2023/08/25 15:17:30;;;;;;;10.80;5.57;;;24.30;99.90;;;;;;4843244;29;20232;-71
2023/08/25 15:19:57;;;;;;;9.27;5.32;;;24.50;99.90;;;;;;4843232;29;20277;-73
2023/08/25 15:22:24;;;;;;;11.73;6.07;;;24.70;99.90;;;;;;4842894;29;20281;-71
2023/08/25 15:24:50;;;;;;;10.32;5.68;;;24.70;99.90;;;;;;4855710;29;20302;-76
2023/08/25 15:27:17;;;;;;;8.27;4.80;;;24.90;99.90;;;;;;4844518;29;20315;-75
2023/08/25 15:29:46;;;;;;;8.68;5.25;;;24.90;99.90;;;;;;4843290;29;20299;-73
2023/08/25 15:32:13;;;;;;;11.52;5.90;;;25.10;99.90;;;;;;4845847;29;20269;-77
2023/08/25 15:34:40;;;;;;;9.30;5.68;;;25.30;99.90;;;;;;4861070;29;20326;-77
2023/08/25 15:37:07;;;;;;;9.68;5.53;;;25.20;99.90;;;;;;4852428;29;20240;-77
2023/08/25 15:39:34;;;;;;;10.13;4.95;;;25.20;99.90;;;;;;4846375;29;20254;-72
2023/08/25 15:42:01;;;;;;;10.75;5.63;;;25.20;99.90;;;;;;4860644;29;20299;-73
2023/08/25 15:44:29;;;;;;;9.43;4.75;;;25.20;99.90;;;;;;4861137;29;20215;-74
2023/08/25 15:46:57;;;;;;;11.40;5.32;;;25.00;99.90;;;;;;4855109;29;20259;-70
2023/08/25 15:49:24;;;;;;;9.15;4.95;;;24.90;99.90;;;;;;4857581;29;20639;-75
2023/08/25 15:51:51;;;;;;;10.07;5.05;;;24.90;99.90;;;;;;4860065;29;20205;-75
2023/08/25 15:54:18;;;;;;;7.45;5.20;;;24.90;99.90;;;;;;4860781;29;20299;-74
2023/08/25 15:56:45;;;;;;;6.68;4.43;;;24.70;99.90;;;;;;4855269;29;20692;-72
2023/08/25 15:59:12;;;;;;;5.65;3.97;;;24.60;99.90;;;;;;4856514;29;20303;-77
2023/08/25 16:01:39;;;;;;;9.07;4.70;;;24.50;99.90;;;;;;4860497;29;20307;-72
2023/08/25 16:04:07;;;;;;;8.75;4.80;;;24.40;99.90;;;;;;4861821;29;20311;-73
2023/08/25 16:06:34;;;;;;;7.97;4.20;;;24.20;99.90;;;;;;4862287;29;20278;-73
2023/08/25 16:09:01;;;;;;;7.18;4.50;;;24.30;99.90;;;;;;4862387;29;20251;-73
2023/08/25 16:11:28;;;;;;;5.68;3.80;;;24.10;99.90;;;;;;4862324;29;20671;-73
2023/08/25 16:13:54;;;;;;;6.35;4.10;;;24.10;99.90;;;;;;4862235;29;20658;-74
2023/08/25 16:16:21;;;;;;;8.68;4.40;;;24.20;99.90;;;;;;4861968;29;20285;-74
2023/08/25 16:18:48;;;;;;;5.05;3.88;;;24.20;99.90;;;;;;4862297;29;20248;-74
2023/08/25 16:21:17;;;;;;;8.48;3.88;;;24.10;99.90;;;;;;4862294;29;20247;-73
2023/08/25 16:23:44;;;;;;;6.40;3.90;;;24.20;99.90;;;;;;4862091;29;20254;-73
2023/08/25 16:26:10;;;;;;;7.45;4.13;;;24.10;99.90;;;;;;4862199;29;20296;-73
2023/08/25 16:28:39;;;;;;;5.90;3.55;;;24.00;99.90;;;;;;4862191;29;20298;-72
2023/08/25 16:31:09;;;;;;;6.38;3.95;;;23.90;99.90;;;;;;4862135;29;20698;-73
2023/08/25 16:33:36;;;;;;;10.80;4.13;;;23.70;99.90;;;;;;4862185;29;20632;-72
2023/08/25 16:36:07;;;;;;;5.82;3.42;;;23.50;99.90;;;;;;4861696;29;20271;-73
2023/08/25 16:38:36;;;;;;;6.70;3.28;;;23.40;99.90;;;;;;4861813;29;20204;-73
2023/08/25 16:41:03;;;;;;;6.40;3.28;;;23.40;99.90;;;;;;4861975;29;20272;-73
2023/08/25 16:43:29;;;;;;;6.13;3.08;;;23.50;99.90;;;;;;4861655;29;20299;-73
2023/08/25 16:45:56;;;;;;;6.70;3.22;;;23.40;99.90;;;;;;4861624;29;20295;-72
2023/08/25 16:48:24;;;;;;;5.05;3.05;;;23.50;99.90;;;;;;4861845;29;20250;-73
2023/08/25 16:50:51;;;;;;;6.93;3.33;;;23.70;99.90;;;;;;4861472;29;20212;-72
2023/08/25 16:53:19;;;;;;;4.90;2.90;;;23.70;99.90;;;;;;4861466;29;20216;-73
2023/08/25 16:55:47;;;;;;;7.03;2.80;;;23.70;99.90;;;;;;4861350;29;20271;-73
2023/08/25 16:58:15;;;;;;;11.00;6.60;;;23.60;99.90;;;;;;4861254;29;20302;-72
2023/08/25 17:00:43;;;;;;;10.65;6.63;;;23.50;99.90;;;;;;4861576;29;20216;-73
2023/08/25 17:03:10;;;;;;;13.80;7.60;;;23.40;99.90;;;;;;4860884;29;20220;-72
2023/08/25 17:05:37;;;;;;;11.98;7.60;;;23.30;99.90;;;;;;4861141;29;20211;-73
2023/08/25 17:08:06;;;;;;;13.52;7.93;;;23.20;99.90;;;;;;4861289;29;20235;-73
2023/08/25 17:10:34;;;;;;;14.10;7.75;;;23.10;99.90;;;;;;4861084;29;20621;-73
2023/08/25 17:13:02;;;;;;;10.95;6.65;;;23.00;99.90;;;;;;4861173;29;20243;-73
2023/08/25 17:15:33;;;;;;;14.00;7.38;;;22.90;99.90;;;;;;4860910;29;20258;-72
2023/08/25 17:18:00;;;;;;;13.05;7.28;;;22.80;99.90;;;;;;4861287;29;20216;-72
2023/08/25 17:20:27;;;;;;;11.10;7.22;;;22.90;99.90;;;;;;4860878;29;20258;-72
2023/08/25 17:22:53;;;;;;;13.77;7.43;;;22.90;99.90;;;;;;4860902;29;20287;-73
2023/08/25 17:25:21;;;;;;;11.48;7.07;;;22.80;99.90;;;;;;4861086;29;20258;-72
2023/08/25 17:27:47;;;;;;;11.00;6.43;;;22.70;99.90;;;;;;4860988;29;20267;-73
2023/08/25 17:30:16;;;;;;;12.88;6.38;;;22.80;99.90;;;;;;4860870;29;20251;-72
2023/08/25 17:32:43;;;;;;;11.18;5.40;;;22.70;99.90;;;;;;4860748;29;20746;-72
2023/08/25 17:35:10;;;;;;;10.43;5.60;;;22.60;99.90;;;;;;4860716;29;20247;-72
2023/08/25 17:37:37;;;;;;;8.45;5.03;;;22.50;99.90;;;;;;4860624;29;20503;-73
2023/08/25 17:40:05;;;;;;;8.63;5.20;;;22.50;99.90;;;;;;4860824;29;20644;-73
2023/08/25 17:42:32;;;;;;;9.20;5.90;;;22.40;99.90;;;;;;4860964;29;20240;-73
2023/08/25 17:44:59;;;;;;;9.35;4.93;;;22.40;99.90;;;;;;4861059;29;20212;-73
2023/08/25 17:47:28;;;;;;;9.48;4.72;;;22.30;99.90;;;;;;4860879;29;20707;-73
2023/08/25 17:49:55;;;;;;;9.45;5.55;;;22.40;99.90;;;;;;4863424;29;20246;-73
2023/08/25 17:52:22;;;;;;;11.25;4.53;;;22.40;99.90;;;;;;4866779;29;20644;-73
2023/08/25 17:54:49;;;;;;;7.43;4.88;;;22.50;99.90;;;;;;4866804;29;20204;-73
2023/08/25 17:57:16;;;;;;;8.45;5.25;;;22.50;99.90;;;;;;4866597;29;20275;-72
2023/08/25 17:59:43;;;;;;;9.73;4.95;;;22.40;99.90;;;;;;4866982;29;20219;-73
2023/08/25 18:02:10;;;;;;;8.70;4.80;;;22.40;99.90;;;;;;4861196;29;20223;-74
2023/08/25 18:04:41;;;;;;;9.13;4.93;;;22.50;99.90;;;;;;4860849;29;20246;-73
2023/08/25 18:07:10;;;;;;;9.05;4.97;;;22.50;99.90;;;;;;4861902;29;20254;-73
2023/08/25 18:09:37;;;;;;;6.65;4.53;;;22.50;99.90;;;;;;4861211;29;20271;-72
2023/08/25 18:12:04;;;;;;;8.07;4.75;;;22.50;99.90;;;;;;4860818;29;20236;-73
2023/08/25 18:14:31;;;;;;;7.90;4.20;;;22.40;99.90;;;;;;4860700;29;20247;-73
2023/08/25 18:16:58;;;;;;;6.97;4.65;;;22.40;99.90;;;;;;4863307;29;20677;-73
2023/08/25 18:19:25;;;;;;;6.95;4.35;;;22.30;99.90;;;;;;4864035;29;20278;-74
2023/08/25 18:21:53;;;;;;;8.25;5.28;;;22.20;99.90;;;;;;4864232;29;20266;-73
2023/08/25 18:24:20;;;;;;;8.25;4.90;;;22.00;99.90;;;;;;4864336;29;20309;-73
2023/08/25 18:26:47;;;;;;;7.55;4.80;;;21.90;99.90;;;;;;4864146;29;20236;-73
2023/08/25 18:29:14;;;;;;;8.68;5.00;;;21.80;99.90;;;;;;4863893;29;20660;-73
2023/08/25 18:31:40;;;;;;;9.27;5.07;;;21.70;99.90;;;;;;4864226;29;20243;-73
2023/08/25 18:34:07;;;;;;;9.48;4.90;;;21.60;99.90;;;;;;4863990;29;20298;-73
2023/08/25 18:36:34;;;;;;;7.72;4.70;;;21.50;99.90;;;;;;4863734;29;20668;-73
2023/08/25 18:39:04;;;;;;;8.60;4.65;;;21.50;99.90;;;;;;4864173;29;20273;-73
2023/08/25 18:41:30;;;;;;;7.40;3.90;;;21.40;99.90;;;;;;4864051;29;20212;-73
2023/08/25 18:43:57;;;;;;;9.50;3.92;;;21.30;99.90;;;;;;4863819;29;20579;-73
2023/08/25 18:46:27;;;;;;;7.40;3.33;;;21.20;99.90;;;;;;4864130;29;20330;-74
2023/08/25 18:48:54;;;;;;;6.55;3.63;;;21.10;99.90;;;;;;4863847;29;20264;-74
2023/08/25 18:51:21;;;;;;;6.05;3.83;;;21.10;99.90;;;;;;4863702;29;20298;-73
2023/08/25 18:53:48;;;;;;;5.68;3.05;;;21.10;99.90;;;;;;4863796;29;20266;-73
2023/08/25 18:56:16;;;;;;;4.03;3.15;;;21.00;99.90;;;;;;4863436;29;20331;-73
2023/08/25 18:58:43;;;;;;;6.68;3.67;;;21.10;99.90;;;;;;4863398;29;20232;-73
2023/08/25 19:01:10;;;;;;;5.43;2.92;;;21.00;99.90;;;;;;4863503;29;20303;-73
2023/08/25 19:03:36;;;;;;;7.00;3.78;;;21.00;99.90;;;;;;4863700;29;20240;-73
2023/08/25 19:06:05;;;;;;;5.75;3.30;;;20.90;99.90;;;;;;4863344;29;20231;-73
2023/08/25 19:08:32;;;;;;;6.53;4.22;;;21.00;99.90;;;;;;4863170;29;20302;-74
2023/08/25 19:10:59;;;;;;;9.75;3.63;;;21.00;99.90;;;;;;4863234;29;20219;-73
2023/08/25 19:13:29;;;;;;;6.78;3.53;;;21.00;99.90;;;;;;4863392;29;20215;-73
2023/08/25 19:15:56;;;;;;;8.30;4.22;;;20.90;99.90;;;;;;4875334;24;20263;-75
2023/08/25 19:18:23;;;;;;;6.47;3.85;;;20.90;99.90;;;;;;4844894;29;20301;-74
2023/08/25 19:20:50;;;;;;;5.25;3.42;;;20.90;99.90;;;;;;4844592;29;20259;-75
2023/08/25 19:23:18;;;;;;;6.45;3.60;;;21.00;99.90;;;;;;4844584;29;20358;-72
2023/08/25 19:25:52;;;;;;;7.38;4.03;;;20.90;99.90;;;;;;4844471;29;20296;-76
2023/08/25 19:28:20;;;;;;;5.97;3.72;;;21.00;99.90;;;;;;4844790;29;20216;-74
2023/08/25 19:30:48;;;;;;;7.35;3.55;;;21.00;99.90;;;;;;4844498;29;20269;-75
2023/08/25 19:33:15;;;;;;;9.13;3.38;;;21.00;99.90;;;;;;4844304;29;20299;-74
2023/08/25 19:35:42;;;;;;;5.32;3.00;;;20.80;99.90;;;;;;4844347;29;20728;-75
2023/08/25 19:38:10;;;;;;;5.07;3.42;;;20.80;99.90;;;;;;4844426;29;20275;-75
2023/08/25 19:40:37;;;;;;;6.53;3.42;;;20.70;99.90;;;;;;4844604;29;20263;-74
2023/08/25 19:43:04;;;;;;;5.43;3.78;;;20.70;99.90;;;;;;4844379;29;20252;-75
2023/08/25 19:45:31;;;;;;;5.07;3.22;;;20.70;99.90;;;;;;4844433;29;20297;-74
2023/08/25 19:47:59;;;;;;;7.15;3.10;;;20.60;99.90;;;;;;4844119;29;20299;-74
2023/08/25 19:50:27;;;;;;;5.47;3.22;;;20.70;99.90;;;;;;4844100;29;20303;-75
2023/08/25 19:52:53;;;;;;;6.90;3.38;;;20.60;99.90;;;;;;4844190;29;20232;-75
2023/08/25 19:55:20;;;;;;;4.10;3.05;;;20.70;99.90;;;;;;4844365;29;20236;-77
2023/08/25 19:57:47;;;;;;;4.60;3.33;;;20.70;99.90;;;;;;4844307;29;20331;-76
2023/08/25 20:00:16;;;;;;;4.30;3.10;;;20.60;99.90;;;;;;4844108;29;20247;-75
2023/08/25 20:02:45;;;;;;;6.50;3.85;;;20.60;99.90;;;;;;4843945;29;20651;-75